Aeroporto :
LOGIN :

Iscrizione | Disclaimer

   EN    FR    IT 

 










Sommario :    VFR   VFR Marginale   IFR   IFR Intensivo   IFR Molto Intensivo
Visibilità : 
Base nubi : 
>= 8 km
>= 3000ft
5 / 8 km
1000 / 3000 ft
1500m / 5 km
500 / 1000 ft
800 / 1500m
200 / 500 ft
< 800m
< 200 ft
Simboli :   Temporali  Nebbia  Neve Forte  Precipitazioni Forti  Vento > 20 kt
SIGMETs :   Varie  Temporali  Ghiacco  Turbolenza  Onda orograficha  Ceneri Vulcaniche







- Altitudine del aeroporto : 1460 ft


LSMA - Alpnach

ULTIMO METAR :
  • 191750Z AUTO 03005KT 310V110 9999NDV SCT018 BKN023 OVC031 02/M01 Q1004 RMK

METARs OBSOLETI :
  • 191720Z AUTO 06008KT 020V080 9999NDV FEW016 BKN019 OVC028 02/M01 Q1004 RMK
  • 191650Z AUTO 05008KT 010V080 9999NDV BKN018 OVC024 02/M01 Q1005 RMK
  • 191620Z AUTO 03008KT 350V070 9999NDV SCT016 BKN018 OVC025 02/M01 Q1004 RMK
  • 191520Z 04009KT 360V070 9999 BKN015 OVC020 02/M01 Q1005 RMK WHT

Previsioni scadute.
Nessun NOTAM noto per questo aeroporto.



MetMap, La meteo Aeronautica in un colpo d'occhio ! - Copyright ORBIFLY Dicembre 2007 - Disclaimer

ORBIFLY MET'MAP TEAM :

Programmazione e sviluppo : Alexandra Zaïnal
Concezione e sviluppo : Baudouin d'Aumeries
Co-Programmazione e sviluppo : Marc-Olivier Méhu
Supporto tecnico e logistico : Manuel Goepfert
Aiuto per la traduzione : Arnaldo La Scala

Contatto : metmap@orbifly.com




FONTI E CREDITI :

   NOAA